»·PEaware :: N321ES KAVX-KSAN

N321ES :: KAVX-KSAN

FLIGHT INFORMATION

Flight Status: Arrived
Operator: Privately registered:
United States
More flights under this callsign
Pilot: Jean Philippe V. (32571)
Aircraft: PILATUS PC-12 EAGLE
(PC12)
More flights by this aircraft type
Origin: KAVX Catalina
United States
Destination: KSAN San Diego Intl-Lindbergh
United States
More flights between these airports :: More routes between these airports
Route: +SXC V208 LAX118 CARDI MZB320 MZB+
File this flight plan on PilotEdge
Remarks:
Altitude:
(Current/Filed)
9,000ft
Speed:
(Current/Filed)
200kts
Departed: 06-Dec-20 11:41 AM
Arrived: 06-Dec-20 12:16 PM
Distance/Time
Traveled:
74nm/0:34
Distance/Time
To Go:
Arrived

Flight Plot

Page will automatically refresh every two minutes.


Map Options




Map Legend


Flown Route
Filed Route
Departure Airport
Arrival Airport
Navaid (VOR, NDB)
Fix

Horizontal Profiles

Position Reports

Time Latitude Longitude Heading Altitude Ground
Speed
06-Dec-20 11:22 33.403881 -118.415078 346 1582ft 0kts
06-Dec-20 11:23 33.403881 -118.415078 346 1582ft 0kts
06-Dec-20 11:24 33.403881 -118.415078 346 1582ft 0kts
06-Dec-20 11:25 33.403881 -118.415078 346 1582ft 0kts
06-Dec-20 11:26 33.403881 -118.415078 346 1582ft 0kts
06-Dec-20 11:27 33.403881 -118.415078 346 1582ft 0kts
06-Dec-20 11:28 33.403881 -118.415078 346 1582ft 0kts
06-Dec-20 11:29 33.403881 -118.415078 346 1582ft 0kts
06-Dec-20 11:30 33.403881 -118.415078 346 1582ft 0kts
06-Dec-20 11:36 33.403881 -118.415078 346 1582ft 0kts
06-Dec-20 11:37 33.403881 -118.415078 346 1582ft 0kts
06-Dec-20 11:38 33.403881 -118.415078 346 1582ft 0kts
06-Dec-20 11:39 33.403881 -118.415078 346 1582ft 0kts
06-Dec-20 11:40 33.403784 -118.417994 54 1587ft 66kts
06-Dec-20 11:41 33.425734 -118.379723 59 2835ft 180kts
06-Dec-20 11:42 33.400055 -118.330787 149 3917ft 194kts
06-Dec-20 11:43 33.360042 -118.291719 103 3996ft 192kts
06-Dec-20 11:44 33.360037 -118.230939 89 4640ft 167kts
06-Dec-20 11:45 33.354424 -118.171673 103 5648ft 212kts
06-Dec-20 11:46 33.343295 -118.101328 100 7519ft 215kts
06-Dec-20 11:47 33.331798 -118.029003 100 8891ft 242kts
06-Dec-20 11:48 33.315962 -117.946303 105 8994ft 261kts
06-Dec-20 11:49 33.299049 -117.861553 97 8999ft 263kts
06-Dec-20 11:50 33.287486 -117.775122 99 9006ft 263kts
06-Dec-20 11:51 33.275877 -117.690535 99 9005ft 251kts
06-Dec-20 11:52 33.264570 -117.609291 100 9006ft 245kts
06-Dec-20 11:53 33.232644 -117.539476 134 9007ft 242kts
06-Dec-20 11:54 33.185133 -117.482722 132 8999ft 241kts
06-Dec-20 11:55 33.141963 -117.422333 124 8990ft 241kts
06-Dec-20 11:56 33.106160 -117.355396 122 8986ft 240kts
06-Dec-20 11:57 33.069965 -117.286274 122 8975ft 251kts
06-Dec-20 11:58 33.033206 -117.216057 122 8970ft 253kts
06-Dec-20 11:59 32.995978 -117.144950 122 8967ft 252kts
06-Dec-20 12:00 32.959286 -117.074740 122 8990ft 246kts
06-Dec-20 12:01 32.923304 -117.005845 122 8805ft 250kts
06-Dec-20 12:02 32.888044 -116.938257 122 7321ft 236kts
06-Dec-20 12:03 32.853741 -116.873228 122 6126ft 224kts
06-Dec-20 12:04 32.822087 -116.814031 123 5999ft 204kts
06-Dec-20 12:05 32.767559 -116.803926 189 5334ft 220kts
06-Dec-20 12:06 32.715078 -116.817156 192 5007ft 156kts
06-Dec-20 12:07 32.690118 -116.849804 249 4996ft 137kts
06-Dec-20 12:08 32.676005 -116.899126 252 3997ft 174kts
06-Dec-20 12:09 32.673312 -116.950599 286 3795ft 147kts
06-Dec-20 12:10 32.686989 -116.996989 292 3304ft 157kts
06-Dec-20 12:11 32.700695 -117.047578 283 2610ft 159kts
06-Dec-20 12:12 32.708642 -117.093116 284 1828ft 137kts
06-Dec-20 12:13 32.718747 -117.128877 289 869ft 83kts
06-Dec-20 12:14 32.725488 -117.156851 287 460ft 90kts
06-Dec-20 12:15 32.732206 -117.183636 291 19ft 13kts
06-Dec-20 12:16 32.732821 -117.184356 14 19ft 0kts
06-Dec-20 12:17 32.735971 -117.184759 344 17ft 32kts

Navigation Log

Ident Type
Flight plan parsing failed, navigation log unavailable